Lulu Pass Weather Station

This weather station is located at 10020ft near Lulu Pass at the head of Fisher Creek. This data can be used with temperature and precipitation data from the Fisher Creek SNOTEL site. This data can be viewed directly on datagarrison.com

Elevation
10020ft
Jump to table bottom
Date Time Temperature
deg F
RH, % Wind Speed Wind Gust Wind Direction
04/20/24 16:00 26.2 55 7 12 N - 350
04/20/24 15:00 27.2 64 7 13 NW - 320
04/20/24 14:00 24.2 88 7 17 NW - 313
04/20/24 13:00 23.3 93 7 15 NW - 330
04/20/24 12:00 21.5 94 7 11 NW - 334
04/20/24 11:00 20.0 93 3 7 NW - 321
04/20/24 10:00 24.3 94 2 4 N - 1
04/20/24 9:00 16.3 92 7 10 N - 13
04/20/24 8:00 12.6 92 7 10 N - 1
04/20/24 7:00 10.6 92 4 6 N - 11
04/20/24 6:00 10.4 92 3 5 N - 358
04/20/24 5:00 10.0 93 1 6 NE - 51
04/20/24 4:00 6.5 91 6 11 SE - 142
04/20/24 3:00 7.1 91 8 12 SE - 147
04/20/24 2:00 7.9 92 7 14 S - 160
04/20/24 1:00 8.4 92 5 13 S - 166
04/19/24 24:00 8.6 92 6 14 S - 171
04/19/24 23:00 8.8 92 2 8 E - 101
04/19/24 22:00 9.4 92 3 10 E - 73
04/19/24 21:00 10.0 92 3 11 S - 159
04/19/24 20:00 10.9 92 3 9 S - 175
04/19/24 19:00 14.6 93 3 7 NW - 312
04/19/24 18:00 17.4 93 6 10 NW - 317
04/19/24 17:00 17.3 93 8 11 NW - 336
04/19/24 16:00 18.7 93 7 13 N - 350
04/19/24 15:00 17.9 93 7 14 N - 352
04/19/24 14:00 18.7 93 6 10 NW - 334
04/19/24 13:00 16.2 92 6 6 N - 345